This is the latest recevied weather packets stored in our database for station/object K9RJT. If no packets are shown the sender has not sent any weather packets the latest 10 day(s).
| Time | Temp. | Humidity | Pressure | Rain* | Wind** | Luminosity | Snow |
|---|---|---|---|---|---|---|---|
| 1778020741 | 26.11° C | 31% | 1007.8 hPa | 0 mm | - | 545 W/m² | - |
| 1778020438 | 25.56° C | 34% | 1007.7 hPa | 0 mm | - | 114 W/m² | - |
| 1778020134 | 25.56° C | 34% | 1007.8 hPa | 0 mm | - | 107 W/m² | - |
| 1778019830 | 26.11° C | 34% | 1007.9 hPa | 0 mm | - | 105 W/m² | - |
| 1778019527 | 26.67° C | 31% | 1007.8 hPa | 0 mm | - | 564 W/m² | - |
| 1778019224 | 26.67° C | 32% | 1007.8 hPa | 0 mm | - | 576 W/m² | - |
| 1778018921 | 26.67° C | 32% | 1007.9 hPa | 0 mm | - | 525 W/m² | - |
| 1778018617 | 26.11° C | 31% | 1007.9 hPa | 0 mm | - | 596 W/m² | - |
| 1778018316 | 26.67° C | 32% | 1008 hPa | 0 mm | - | 589 W/m² | - |
| 1778018014 | 26.11° C | 33% | 1007.9 hPa | 0 mm | - | 585 W/m² | - |
| 1778017711 | 25.56° C | 33% | 1007.9 hPa | 0 mm | - | 611 W/m² | - |
| 1778017409 | 26.67° C | 31% | 1007.8 hPa | 0 mm | - | 176 W/m² | - |
| 1778017105 | 26.67° C | 32% | 1007.9 hPa | 0 mm | - | 630 W/m² | - |
| 1778016803 | 27.22° C | 31% | 1008.1 hPa | 0 mm | - | 635 W/m² | - |
| 1778016499 | 26.67° C | 31% | 1008 hPa | 0 mm | - | 637 W/m² | - |
| 1778016196 | 26.67° C | 31% | 1007.8 hPa | 0 mm | - | 657 W/m² | - |
| 1778015892 | 25.56° C | 34% | 1007.9 hPa | 0 mm | - | 673 W/m² | - |
| 1778015590 | 26.11° C | 34% | 1008.1 hPa | 0 mm | - | 690 W/m² | - |
| 1778015286 | 26.11° C | 34% | 1007.9 hPa | 0 mm | - | 676 W/m² | - |
| 1778014983 | 26.11° C | 33% | 1007.9 hPa | 0 mm | - | 680 W/m² | - |
| 1778014680 | 26.11° C | 34% | 1007.9 hPa | 0 mm | - | 690 W/m² | - |
| 1778014379 | 25.56° C | 34% | 1007.8 hPa | 0 mm | - | 140 W/m² | - |
| 1778014075 | 25.56° C | 35% | 1007.8 hPa | 0 mm | - | 727 W/m² | - |
| 1778013773 | 25.56° C | 38% | 1007.6 hPa | 0 mm | - | 708 W/m² | - |
| 1778013470 | 25.56° C | 38% | 1007.8 hPa | 0 mm | - | 158 W/m² | - |
* Rain latest hour (hover to see other rain measurements)
** Current wind speed in m/s (hover to see current wind gust speed)